sensor_id;sensor_type;location;lat;lon;timestamp;pressure;altitude;pressure_sealevel;temperature;humidity
8069;BME280;4077;43.702;24.896;2024-02-21T00:01:28;51490.19;;;-145.38;100.00
8069;BME280;4077;43.702;24.896;2024-02-21T00:03:53;51494.09;;;-145.38;100.00
8069;BME280;4077;43.702;24.896;2024-02-21T00:06:19;51470.69;;;-145.38;100.00
8069;BME280;4077;43.702;24.896;2024-02-21T00:08:44;51494.09;;;-145.38;100.00
8069;BME280;4077;43.702;24.896;2024-02-21T00:11:10;51515.59;;;-145.38;100.00
8069;BME280;4077;43.702;24.896;2024-02-21T00:13:35;51492.16;;;-145.38;100.00
8069;BME280;4077;43.702;24.896;2024-02-21T00:16:01;51501.91;;;-145.38;100.00
8069;BME280;4077;43.702;24.896;2024-02-21T00:18:27;51460.91;;;-145.38;100.00
8069;BME280;4077;43.702;24.896;2024-02-21T00:20:52;51482.38;;;-145.38;100.00
8069;BME280;4077;43.702;24.896;2024-02-21T00:23:18;51458.97;;;-145.38;100.00
8069;BME280;4077;43.702;24.896;2024-02-21T00:25:43;51425.78;;;-145.38;100.00
8069;BME280;4077;43.702;24.896;2024-02-21T00:28:08;51492.16;;;-145.38;100.00
8069;BME280;4077;43.702;24.896;2024-02-21T00:30:34;51482.38;;;-145.38;100.00
8069;BME280;4077;43.702;24.896;2024-02-21T00:32:59;51474.59;;;-145.38;100.00
8069;BME280;4077;43.702;24.896;2024-02-21T00:35:25;51492.16;;;-145.38;100.00
8069;BME280;4077;43.702;24.896;2024-02-21T00:37:51;51482.38;;;-145.38;100.00
8069;BME280;4077;43.702;24.896;2024-02-21T00:40:17;51462.88;;;-145.38;100.00
8069;BME280;4077;43.702;24.896;2024-02-21T00:42:45;51496.06;;;-145.38;100.00
8069;BME280;4077;43.702;24.896;2024-02-21T00:45:11;51488.25;;;-145.38;100.00
8069;BME280;4077;43.702;24.896;2024-02-21T00:47:37;51486.28;;;-145.38;100.00
8069;BME280;4077;43.702;24.896;2024-02-21T00:50:02;51509.72;;;-145.38;100.00
8069;BME280;4077;43.702;24.896;2024-02-21T00:52:28;51480.44;;;-145.38;100.00
8069;BME280;4077;43.702;24.896;2024-02-21T00:54:53;51521.44;;;-145.38;100.00
8069;BME280;4077;43.702;24.896;2024-02-21T00:57:19;51482.38;;;-145.38;100.00
8069;BME280;4077;43.702;24.896;2024-02-21T00:59:44;51501.91;;;-145.38;100.00
8069;BME280;4077;43.702;24.896;2024-02-21T01:02:10;51515.59;;;-145.38;100.00
8069;BME280;4077;43.702;24.896;2024-02-21T01:04:35;51484.34;;;-145.38;100.00
8069;BME280;4077;43.702;24.896;2024-02-21T01:07:01;51523.38;;;-145.38;100.00
8069;BME280;4077;43.702;24.896;2024-02-21T01:09:27;51466.78;;;-145.38;100.00
8069;BME280;4077;43.702;24.896;2024-02-21T01:11:52;51531.19;;;-145.38;100.00
8069;BME280;4077;43.702;24.896;2024-02-21T01:14:18;51458.97;;;-145.38;100.00
8069;BME280;4077;43.702;24.896;2024-02-21T01:16:43;51515.59;;;-145.38;100.00
8069;BME280;4077;43.702;24.896;2024-02-21T01:19:09;51498.00;;;-145.38;100.00
8069;BME280;4077;43.702;24.896;2024-02-21T01:21:34;51439.44;;;-145.38;100.00
8069;BME280;4077;43.702;24.896;2024-02-21T01:24:00;51474.59;;;-145.38;100.00
8069;BME280;4077;43.702;24.896;2024-02-21T01:26:25;51466.78;;;-145.38;100.00
8069;BME280;4077;43.702;24.896;2024-02-21T01:28:51;51482.38;;;-145.38;100.00
8069;BME280;4077;43.702;24.896;2024-02-21T01:31:16;51517.53;;;-145.38;100.00
8069;BME280;4077;43.702;24.896;2024-02-21T01:33:41;51503.88;;;-145.38;100.00
8069;BME280;4077;43.702;24.896;2024-02-21T01:36:08;51498.00;;;-145.38;100.00
8069;BME280;4077;43.702;24.896;2024-02-21T01:38:33;51501.91;;;-145.38;100.00
8069;BME280;4077;43.702;24.896;2024-02-21T01:40:59;51519.47;;;-145.38;100.00
8069;BME280;4077;43.702;24.896;2024-02-21T01:43:24;51458.97;;;-145.38;100.00
8069;BME280;4077;43.702;24.896;2024-02-21T01:45:51;51476.53;;;-145.38;100.00
8069;BME280;4077;43.702;24.896;2024-02-21T01:48:18;51494.09;;;-145.38;100.00
8069;BME280;4077;43.702;24.896;2024-02-21T01:50:49;51468.72;;;-145.38;100.00
8069;BME280;4077;43.702;24.896;2024-02-21T01:53:34;51505.81;;;-145.38;100.00
8069;BME280;4077;43.702;24.896;2024-02-21T01:56:00;51470.69;;;-145.38;100.00
8069;BME280;4077;43.702;24.896;2024-02-21T01:58:28;51470.69;;;-145.38;100.00
8069;BME280;4077;43.702;24.896;2024-02-21T02:00:56;51480.44;;;-145.38;100.00
8069;BME280;4077;43.702;24.896;2024-02-21T02:03:22;51462.88;;;-145.38;100.00
8069;BME280;4077;43.702;24.896;2024-02-21T02:05:49;51496.06;;;-145.38;100.00
8069;BME280;4077;43.702;24.896;2024-02-21T02:08:15;51496.06;;;-145.38;100.00
8069;BME280;4077;43.702;24.896;2024-02-21T02:10:42;51482.38;;;-145.38;100.00
8069;BME280;4077;43.702;24.896;2024-02-21T02:13:08;51501.91;;;-145.38;100.00
8069;BME280;4077;43.702;24.896;2024-02-21T02:15:47;51505.81;;;-145.38;100.00
8069;BME280;4077;43.702;24.896;2024-02-21T02:18:13;51515.59;;;-145.38;100.00
8069;BME280;4077;43.702;24.896;2024-02-21T02:20:39;51540.97;;;-145.38;100.00
8069;BME280;4077;43.702;24.896;2024-02-21T02:25:42;51474.59;;;-145.38;100.00
8069;BME280;4077;43.702;24.896;2024-02-21T02:28:09;51470.69;;;-145.38;100.00
8069;BME280;4077;43.702;24.896;2024-02-21T02:30:35;51505.81;;;-145.38;100.00
8069;BME280;4077;43.702;24.896;2024-02-21T02:33:04;51499.97;;;-145.38;100.00
8069;BME280;4077;43.702;24.896;2024-02-21T02:35:30;51505.81;;;-145.38;100.00
8069;BME280;4077;43.702;24.896;2024-02-21T02:37:55;51490.19;;;-145.38;100.00
8069;BME280;4077;43.702;24.896;2024-02-21T02:40:21;51501.91;;;-145.38;100.00
8069;BME280;4077;43.702;24.896;2024-02-21T02:42:46;51447.25;;;-145.38;100.00
8069;BME280;4077;43.702;24.896;2024-02-21T02:45:14;51478.50;;;-145.38;100.00
8069;BME280;4077;43.702;24.896;2024-02-21T02:47:40;51486.28;;;-145.38;100.00
8069;BME280;4077;43.702;24.896;2024-02-21T02:50:06;51478.50;;;-145.38;100.00
8069;BME280;4077;43.702;24.896;2024-02-21T02:52:32;51517.53;;;-145.38;100.00
8069;BME280;4077;43.702;24.896;2024-02-21T02:54:58;51501.91;;;-145.38;100.00
8069;BME280;4077;43.702;24.896;2024-02-21T02:57:23;51443.34;;;-145.38;100.00
8069;BME280;4077;43.702;24.896;2024-02-21T02:59:50;51496.06;;;-145.38;100.00
8069;BME280;4077;43.702;24.896;2024-02-21T03:02:16;51484.34;;;-145.38;100.00
8069;BME280;4077;43.702;24.896;2024-02-21T03:04:41;51490.19;;;-145.38;100.00
8069;BME280;4077;43.702;24.896;2024-02-21T03:07:07;51486.28;;;-145.38;100.00
8069;BME280;4077;43.702;24.896;2024-02-21T03:09:32;51496.06;;;-145.38;100.00
8069;BME280;4077;43.702;24.896;2024-02-21T03:11:57;51492.16;;;-145.38;100.00
8069;BME280;4077;43.702;24.896;2024-02-21T03:14:28;51535.09;;;-145.38;100.00
8069;BME280;4077;43.702;24.896;2024-02-21T03:16:54;51490.19;;;-145.38;100.00
8069;BME280;4077;43.702;24.896;2024-02-21T03:19:19;51482.38;;;-145.38;100.00
8069;BME280;4077;43.702;24.896;2024-02-21T03:21:45;51468.72;;;-145.38;100.00
8069;BME280;4077;43.702;24.896;2024-02-21T03:24:10;51455.06;;;-145.38;100.00
8069;BME280;4077;43.702;24.896;2024-02-21T03:26:36;51462.88;;;-145.38;100.00
8069;BME280;4077;43.702;24.896;2024-02-21T03:29:01;51513.63;;;-145.38;100.00
8069;BME280;4077;43.702;24.896;2024-02-21T03:31:28;51494.09;;;-145.38;100.00
8069;BME280;4077;43.702;24.896;2024-02-21T03:33:53;51496.06;;;-145.38;100.00
8069;BME280;4077;43.702;24.896;2024-02-21T03:36:18;51511.69;;;-145.38;100.00
8069;BME280;4077;43.702;24.896;2024-02-21T03:38:44;51544.88;;;-145.38;100.00
8069;BME280;4077;43.702;24.896;2024-02-21T03:41:10;51486.28;;;-145.38;100.00
8069;BME280;4077;43.702;24.896;2024-02-21T03:43:37;51468.72;;;-145.38;100.00
8069;BME280;4077;43.702;24.896;2024-02-21T03:46:03;51458.97;;;-145.38;100.00
8069;BME280;4077;43.702;24.896;2024-02-21T03:48:29;51458.97;;;-145.38;100.00
8069;BME280;4077;43.702;24.896;2024-02-21T03:50:54;51482.38;;;-145.38;100.00
8069;BME280;4077;43.702;24.896;2024-02-21T03:53:19;51488.25;;;-145.38;100.00
8069;BME280;4077;43.702;24.896;2024-02-21T03:55:45;51458.97;;;-145.38;100.00
8069;BME280;4077;43.702;24.896;2024-02-21T03:58:10;51509.72;;;-145.38;100.00
8069;BME280;4077;43.702;24.896;2024-02-21T04:00:36;51521.44;;;-145.38;100.00
8069;BME280;4077;43.702;24.896;2024-02-21T04:03:01;51476.53;;;-145.38;100.00
8069;BME280;4077;43.702;24.896;2024-02-21T04:05:28;51488.25;;;-145.38;100.00
8069;BME280;4077;43.702;24.896;2024-02-21T04:07:53;51462.88;;;-145.38;100.00
8069;BME280;4077;43.702;24.896;2024-02-21T04:10:19;51488.25;;;-145.38;100.00
8069;BME280;4077;43.702;24.896;2024-02-21T04:12:44;51466.78;;;-145.38;100.00
8069;BME280;4077;43.702;24.896;2024-02-21T04:15:09;51509.72;;;-145.38;100.00
8069;BME280;4077;43.702;24.896;2024-02-21T04:17:36;51472.63;;;-145.38;100.00
8069;BME280;4077;43.702;24.896;2024-02-21T04:20:03;51503.88;;;-145.38;100.00
8069;BME280;4077;43.702;24.896;2024-02-21T04:22:31;51439.44;;;-145.38;100.00
8069;BME280;4077;43.702;24.896;2024-02-21T04:24:57;51472.63;;;-145.38;100.00
8069;BME280;4077;43.702;24.896;2024-02-21T04:27:23;51490.19;;;-145.38;100.00
8069;BME280;4077;43.702;24.896;2024-02-21T04:29:48;51517.53;;;-145.38;100.00
8069;BME280;4077;43.702;24.896;2024-02-21T04:32:13;51457.00;;;-145.38;100.00
8069;BME280;4077;43.702;24.896;2024-02-21T04:34:41;51484.34;;;-145.38;100.00
8069;BME280;4077;43.702;24.896;2024-02-21T04:37:06;51476.53;;;-145.38;100.00
8069;BME280;4077;43.702;24.896;2024-02-21T04:39:32;51482.38;;;-145.38;100.00
8069;BME280;4077;43.702;24.896;2024-02-21T04:41:57;51466.78;;;-145.38;100.00
8069;BME280;4077;43.702;24.896;2024-02-21T04:44:23;51519.47;;;-145.38;100.00
8069;BME280;4077;43.702;24.896;2024-02-21T04:46:48;51474.59;;;-145.38;100.00
8069;BME280;4077;43.702;24.896;2024-02-21T04:49:14;51462.88;;;-145.38;100.00
8069;BME280;4077;43.702;24.896;2024-02-21T04:51:40;51490.19;;;-145.38;100.00
8069;BME280;4077;43.702;24.896;2024-02-21T04:54:06;51478.50;;;-145.38;100.00
8069;BME280;4077;43.702;24.896;2024-02-21T04:56:31;51486.28;;;-145.38;100.00
8069;BME280;4077;43.702;24.896;2024-02-21T04:58:57;51474.59;;;-145.38;100.00
8069;BME280;4077;43.702;24.896;2024-02-21T05:01:22;51458.97;;;-145.38;100.00
8069;BME280;4077;43.702;24.896;2024-02-21T05:03:48;51466.78;;;-145.38;100.00
8069;BME280;4077;43.702;24.896;2024-02-21T05:06:13;51503.88;;;-145.38;100.00
8069;BME280;4077;43.702;24.896;2024-02-21T05:08:40;51466.78;;;-145.38;100.00
8069;BME280;4077;43.702;24.896;2024-02-21T05:11:05;51501.91;;;-145.38;100.00
8069;BME280;4077;43.702;24.896;2024-02-21T05:13:31;51472.63;;;-145.38;100.00
8069;BME280;4077;43.702;24.896;2024-02-21T05:15:56;51490.19;;;-145.38;100.00
8069;BME280;4077;43.702;24.896;2024-02-21T05:18:22;51486.28;;;-145.38;100.00
8069;BME280;4077;43.702;24.896;2024-02-21T05:20:47;51474.59;;;-145.38;100.00
8069;BME280;4077;43.702;24.896;2024-02-21T05:23:13;51523.38;;;-145.38;100.00
8069;BME280;4077;43.702;24.896;2024-02-21T05:25:38;51478.50;;;-145.38;100.00
8069;BME280;4077;43.702;24.896;2024-02-21T05:28:04;51466.78;;;-145.38;100.00
8069;BME280;4077;43.702;24.896;2024-02-21T05:30:31;51447.25;;;-145.38;100.00
8069;BME280;4077;43.702;24.896;2024-02-21T05:32:56;51455.06;;;-145.38;100.00
8069;BME280;4077;43.702;24.896;2024-02-21T05:35:28;51470.69;;;-145.38;100.00
8069;BME280;4077;43.702;24.896;2024-02-21T05:37:54;51458.97;;;-145.38;100.00
8069;BME280;4077;43.702;24.896;2024-02-21T05:40:20;51525.34;;;-145.38;100.00
8069;BME280;4077;43.702;24.896;2024-02-21T05:42:45;51462.88;;;-145.38;100.00
8069;BME280;4077;43.702;24.896;2024-02-21T05:45:11;51439.44;;;-145.38;100.00
8069;BME280;4077;43.702;24.896;2024-02-21T05:47:36;51484.34;;;-145.38;100.00
8069;BME280;4077;43.702;24.896;2024-02-21T05:50:02;51443.34;;;-145.38;100.00
8069;BME280;4077;43.702;24.896;2024-02-21T05:52:27;51458.97;;;-145.38;100.00
8069;BME280;4077;43.702;24.896;2024-02-21T05:54:52;51482.38;;;-145.38;100.00
8069;BME280;4077;43.702;24.896;2024-02-21T05:57:18;51482.38;;;-145.38;100.00
8069;BME280;4077;43.702;24.896;2024-02-21T05:59:43;51470.69;;;-145.38;100.00
8069;BME280;4077;43.702;24.896;2024-02-21T06:02:09;51472.63;;;-145.38;100.00
8069;BME280;4077;43.702;24.896;2024-02-21T06:04:35;51466.78;;;-145.38;100.00
8069;BME280;4077;43.702;24.896;2024-02-21T06:07:01;51501.91;;;-145.38;100.00
8069;BME280;4077;43.702;24.896;2024-02-21T06:09:27;51507.78;;;-145.38;100.00
8069;BME280;4077;43.702;24.896;2024-02-21T06:11:52;51419.94;;;-145.38;100.00
8069;BME280;4077;43.702;24.896;2024-02-21T06:14:19;51470.69;;;-145.38;100.00
8069;BME280;4077;43.702;24.896;2024-02-21T06:16:44;51458.97;;;-145.38;100.00
8069;BME280;4077;43.702;24.896;2024-02-21T06:19:10;51496.06;;;-145.38;100.00
8069;BME280;4077;43.702;24.896;2024-02-21T06:21:36;51458.97;;;-145.38;100.00
8069;BME280;4077;43.702;24.896;2024-02-21T06:24:01;51455.06;;;-145.38;100.00
8069;BME280;4077;43.702;24.896;2024-02-21T06:26:26;51470.69;;;-145.38;100.00
8069;BME280;4077;43.702;24.896;2024-02-21T06:28:52;51501.91;;;-145.38;100.00
8069;BME280;4077;43.702;24.896;2024-02-21T06:31:17;51455.06;;;-145.38;100.00
8069;BME280;4077;43.702;24.896;2024-02-21T06:33:43;51482.38;;;-145.38;100.00
8069;BME280;4077;43.702;24.896;2024-02-21T06:36:08;51474.59;;;-145.38;100.00
8069;BME280;4077;43.702;24.896;2024-02-21T06:38:34;51472.63;;;-145.38;100.00
8069;BME280;4077;43.702;24.896;2024-02-21T06:40:59;51447.25;;;-145.38;100.00
8069;BME280;4077;43.702;24.896;2024-02-21T06:43:26;51419.94;;;-145.38;100.00
8069;BME280;4077;43.702;24.896;2024-02-21T06:45:55;51474.59;;;-145.38;100.00
8069;BME280;4077;43.702;24.896;2024-02-21T06:48:22;51478.50;;;-145.38;100.00
8069;BME280;4077;43.702;24.896;2024-02-21T06:50:47;51474.59;;;-145.38;100.00
8069;BME280;4077;43.702;24.896;2024-02-21T06:53:13;51468.72;;;-145.38;100.00
8069;BME280;4077;43.702;24.896;2024-02-21T06:55:38;51458.97;;;-145.38;100.00
8069;BME280;4077;43.702;24.896;2024-02-21T06:58:04;51451.16;;;-145.38;100.00
8069;BME280;4077;43.702;24.896;2024-02-21T07:00:29;51429.69;;;-145.38;100.00
8069;BME280;4077;43.702;24.896;2024-02-21T07:02:55;51451.16;;;-145.38;100.00
8069;BME280;4077;43.702;24.896;2024-02-21T07:05:21;51458.97;;;-145.38;100.00
8069;BME280;4077;43.702;24.896;2024-02-21T07:07:46;51472.63;;;-145.38;100.00
8069;BME280;4077;43.702;24.896;2024-02-21T07:10:12;51431.63;;;-145.38;100.00
8069;BME280;4077;43.702;24.896;2024-02-21T07:12:37;51451.16;;;-145.38;100.00
8069;BME280;4077;43.702;24.896;2024-02-21T07:15:08;51423.81;;;-145.38;100.00
8069;BME280;4077;43.702;24.896;2024-02-21T07:17:34;51425.78;;;-145.38;100.00
8069;BME280;4077;43.702;24.896;2024-02-21T07:19:59;51478.50;;;-145.38;100.00
8069;BME280;4077;43.702;24.896;2024-02-21T07:22:26;51421.88;;;-145.38;100.00
8069;BME280;4077;43.702;24.896;2024-02-21T07:24:52;51439.44;;;-145.38;100.00
8069;BME280;4077;43.702;24.896;2024-02-21T07:27:17;51462.88;;;-145.38;100.00
8069;BME280;4077;43.702;24.896;2024-02-21T07:29:43;51470.69;;;-145.38;100.00
8069;BME280;4077;43.702;24.896;2024-02-21T07:32:12;51419.94;;;-145.38;100.00
8069;BME280;4077;43.702;24.896;2024-02-21T07:34:38;51451.16;;;-145.38;100.00
8069;BME280;4077;43.702;24.896;2024-02-21T07:37:03;51451.16;;;-145.38;100.00
8069;BME280;4077;43.702;24.896;2024-02-21T07:39:29;51419.94;;;-145.38;100.00
8069;BME280;4077;43.702;24.896;2024-02-21T07:41:54;51482.38;;;-145.38;100.00
8069;BME280;4077;43.702;24.896;2024-02-21T07:44:20;51427.72;;;-145.38;100.00
8069;BME280;4077;43.702;24.896;2024-02-21T07:46:45;51482.38;;;-145.38;100.00
8069;BME280;4077;43.702;24.896;2024-02-21T07:49:10;51423.81;;;-145.38;100.00
8069;BME280;4077;43.702;24.896;2024-02-21T07:51:36;51458.97;;;-145.38;100.00
8069;BME280;4077;43.702;24.896;2024-02-21T07:54:02;51435.53;;;-145.38;100.00
8069;BME280;4077;43.702;24.896;2024-02-21T07:56:29;51472.63;;;-145.38;100.00
8069;BME280;4077;43.702;24.896;2024-02-21T07:58:55;51404.31;;;-145.38;100.00
8069;BME280;4077;43.702;24.896;2024-02-21T08:01:20;51423.81;;;-145.38;100.00
8069;BME280;4077;43.702;24.896;2024-02-21T08:03:46;51447.25;;;-145.38;100.00
8069;BME280;4077;43.702;24.896;2024-02-21T08:06:13;51445.31;;;-145.38;100.00
8069;BME280;4077;43.702;24.896;2024-02-21T08:08:39;51390.66;;;-145.38;100.00
8069;BME280;4077;43.702;24.896;2024-02-21T08:11:05;51419.94;;;-145.38;100.00
8069;BME280;4077;43.702;24.896;2024-02-21T08:13:31;51441.41;;;-145.38;100.00
8069;BME280;4077;43.702;24.896;2024-02-21T08:15:56;51431.63;;;-145.38;100.00
8069;BME280;4077;43.702;24.896;2024-02-21T08:18:22;51439.44;;;-145.38;100.00
8069;BME280;4077;43.702;24.896;2024-02-21T08:20:48;51449.22;;;-145.38;100.00
8069;BME280;4077;43.702;24.896;2024-02-21T08:23:18;51423.81;;;-145.38;100.00
8069;BME280;4077;43.702;24.896;2024-02-21T08:25:44;51427.72;;;-145.38;100.00
8069;BME280;4077;43.702;24.896;2024-02-21T08:28:10;51416.03;;;-145.38;100.00
8069;BME280;4077;43.702;24.896;2024-02-21T08:30:35;51460.91;;;-145.38;100.00
8069;BME280;4077;43.702;24.896;2024-02-21T08:33:01;51410.16;;;-145.38;100.00
8069;BME280;4077;43.702;24.896;2024-02-21T08:35:26;51412.13;;;-145.38;100.00
8069;BME280;4077;43.702;24.896;2024-02-21T08:37:52;51373.06;;;-145.38;100.00
8069;BME280;4077;43.702;24.896;2024-02-21T08:40:17;51388.69;;;-145.38;100.00
8069;BME280;4077;43.702;24.896;2024-02-21T08:42:46;51416.03;;;-145.38;100.00
8069;BME280;4077;43.702;24.896;2024-02-21T08:45:12;51412.13;;;-145.38;100.00
8069;BME280;4077;43.702;24.896;2024-02-21T08:47:40;51410.16;;;-145.38;100.00
8069;BME280;4077;43.702;24.896;2024-02-21T08:50:07;51439.44;;;-145.38;100.00
8069;BME280;4077;43.702;24.896;2024-02-21T08:52:32;51431.63;;;-145.38;100.00
8069;BME280;4077;43.702;24.896;2024-02-21T08:54:58;51380.88;;;-145.38;100.00
8069;BME280;4077;43.702;24.896;2024-02-21T08:57:29;51421.88;;;-145.38;100.00
8069;BME280;4077;43.702;24.896;2024-02-21T08:59:54;51396.50;;;-145.38;100.00
8069;BME280;4077;43.702;24.896;2024-02-21T09:02:20;51419.94;;;-145.38;100.00
8069;BME280;4077;43.702;24.896;2024-02-21T09:04:45;51404.31;;;-145.38;100.00
8069;BME280;4077;43.702;24.896;2024-02-21T09:07:11;51421.88;;;-145.38;100.00
8069;BME280;4077;43.702;24.896;2024-02-21T09:09:37;51396.50;;;-145.38;100.00
8069;BME280;4077;43.702;24.896;2024-02-21T09:12:06;51408.22;;;-145.38;100.00
8069;BME280;4077;43.702;24.896;2024-02-21T09:14:32;51396.50;;;-145.38;100.00
8069;BME280;4077;43.702;24.896;2024-02-21T09:16:58;51431.63;;;-145.38;100.00
8069;BME280;4077;43.702;24.896;2024-02-21T09:19:23;51404.31;;;-145.38;100.00
8069;BME280;4077;43.702;24.896;2024-02-21T09:21:49;51427.72;;;-145.38;100.00
8069;BME280;4077;43.702;24.896;2024-02-21T09:24:15;51384.78;;;-145.38;100.00
8069;BME280;4077;43.702;24.896;2024-02-21T09:26:40;51423.81;;;-145.38;100.00
8069;BME280;4077;43.702;24.896;2024-02-21T09:29:06;51355.50;;;-145.38;100.00
8069;BME280;4077;43.702;24.896;2024-02-21T09:31:31;51414.06;;;-145.38;100.00
8069;BME280;4077;43.702;24.896;2024-02-21T09:33:57;51412.13;;;-145.38;100.00
8069;BME280;4077;43.702;24.896;2024-02-21T09:36:22;51402.34;;;-145.38;97.59
8069;BME280;4077;43.702;24.896;2024-02-21T09:38:48;51363.31;;;-145.38;95.82
8069;BME280;4077;43.702;24.896;2024-02-21T09:41:18;51412.13;;;-145.38;93.66
8069;BME280;4077;43.702;24.896;2024-02-21T09:43:46;51386.75;;;-145.38;94.30
8069;BME280;4077;43.702;24.896;2024-02-21T09:46:18;51431.63;;;-145.38;93.20
8069;BME280;4077;43.702;24.896;2024-02-21T09:48:58;51355.50;;;-145.38;90.31
8069;BME280;4077;43.702;24.896;2024-02-21T09:51:30;51345.75;;;-145.38;88.66
8069;BME280;4077;43.702;24.896;2024-02-21T09:53:57;51376.97;;;-145.38;89.70
8069;BME280;4077;43.702;24.896;2024-02-21T09:56:23;51380.88;;;-145.38;86.59
8069;BME280;4077;43.702;24.896;2024-02-21T09:58:49;51349.66;;;-145.38;82.96
8069;BME280;4077;43.702;24.896;2024-02-21T10:01:14;51400.41;;;-145.38;83.43
8069;BME280;4077;43.702;24.896;2024-02-21T10:03:41;51384.78;;;-145.38;80.59
8069;BME280;4077;43.702;24.896;2024-02-21T10:06:09;51345.75;;;-145.38;79.67
8069;BME280;4077;43.702;24.896;2024-02-21T10:08:34;51382.84;;;-145.38;79.55
8069;BME280;4077;43.702;24.896;2024-02-21T10:11:00;51324.28;;;-145.38;75.54
8069;BME280;4077;43.702;24.896;2024-02-21T10:13:28;51373.06;;;-145.38;72.31
8069;BME280;4077;43.702;24.896;2024-02-21T10:16:07;51365.25;;;-145.38;67.33
8069;BME280;4077;43.702;24.896;2024-02-21T10:18:36;51339.88;;;-145.38;66.34
8069;BME280;4077;43.702;24.896;2024-02-21T10:21:06;51369.16;;;-145.38;63.81
8069;BME280;4077;43.702;24.896;2024-02-21T10:23:45;51390.66;;;-145.38;62.93
8069;BME280;4077;43.702;24.896;2024-02-21T10:26:11;51359.41;;;-145.38;60.90
8069;BME280;4077;43.702;24.896;2024-02-21T10:28:37;51345.75;;;-145.38;60.33
8069;BME280;4077;43.702;24.896;2024-02-21T10:31:23;51365.25;;;-145.38;59.84
8069;BME280;4077;43.702;24.896;2024-02-21T10:34:01;51322.31;;;-145.38;59.99
8069;BME280;4077;43.702;24.896;2024-02-21T10:36:30;51388.69;;;-145.38;59.19
8069;BME280;4077;43.702;24.896;2024-02-21T10:38:56;51330.13;;;-145.38;58.83
8069;BME280;4077;43.702;24.896;2024-02-21T10:41:22;51339.88;;;-145.38;59.39
8069;BME280;4077;43.702;24.896;2024-02-21T10:43:52;51363.31;;;-145.38;59.12
8069;BME280;4077;43.702;24.896;2024-02-21T10:46:23;51361.34;;;-145.38;59.39
8069;BME280;4077;43.702;24.896;2024-02-21T10:49:03;51355.50;;;-145.38;59.69
8069;BME280;4077;43.702;24.896;2024-02-21T10:51:33;51384.78;;;-145.38;59.53
8069;BME280;4077;43.702;24.896;2024-02-21T10:54:20;51369.16;;;-145.38;59.66
8069;BME280;4077;43.702;24.896;2024-02-21T10:56:50;51334.03;;;-145.38;60.32
8069;BME280;4077;43.702;24.896;2024-02-21T10:59:17;51353.56;;;-145.38;60.87
8069;BME280;4077;43.702;24.896;2024-02-21T11:01:43;51332.06;;;-145.38;59.48
8069;BME280;4077;43.702;24.896;2024-02-21T11:04:09;51357.47;;;-145.38;58.35
8069;BME280;4077;43.702;24.896;2024-02-21T11:06:38;51324.28;;;-145.38;57.16
8069;BME280;4077;43.702;24.896;2024-02-21T11:09:07;51341.84;;;-145.38;56.76
8069;BME280;4077;43.702;24.896;2024-02-21T11:11:38;51361.34;;;-145.38;56.83
8069;BME280;4077;43.702;24.896;2024-02-21T11:14:17;51332.06;;;-145.38;57.41
8069;BME280;4077;43.702;24.896;2024-02-21T11:16:43;51369.16;;;-145.38;58.75
8069;BME280;4077;43.702;24.896;2024-02-21T11:19:29;51367.22;;;-145.38;59.50
8069;BME280;4077;43.702;24.896;2024-02-21T11:21:56;51335.97;;;-145.38;60.30
8069;BME280;4077;43.702;24.896;2024-02-21T11:24:32;51334.03;;;-145.38;60.71
8069;BME280;4077;43.702;24.896;2024-02-21T11:27:27;51373.06;;;-145.38;59.85
8069;BME280;4077;43.702;24.896;2024-02-21T11:29:57;51349.66;;;-145.38;58.63
8069;BME280;4077;43.702;24.896;2024-02-21T11:32:25;51335.97;;;-145.38;58.68
8069;BME280;4077;43.702;24.896;2024-02-21T11:34:58;51361.34;;;-145.38;58.14
8069;BME280;4077;43.702;24.896;2024-02-21T11:37:27;51367.22;;;-145.38;58.19
8069;BME280;4077;43.702;24.896;2024-02-21T11:39:54;51359.41;;;-145.38;58.43
8069;BME280;4077;43.702;24.896;2024-02-21T11:42:20;51345.75;;;-145.38;58.41
8069;BME280;4077;43.702;24.896;2024-02-21T11:44:46;51365.25;;;-145.38;56.47
8069;BME280;4077;43.702;24.896;2024-02-21T11:47:13;51324.28;;;-145.38;56.12
8069;BME280;4077;43.702;24.896;2024-02-21T11:49:45;51337.94;;;-145.38;56.10
8069;BME280;4077;43.702;24.896;2024-02-21T11:52:11;51345.75;;;-145.38;54.77
8069;BME280;4077;43.702;24.896;2024-02-21T11:54:37;51365.25;;;-145.38;54.78
8069;BME280;4077;43.702;24.896;2024-02-21T11:57:02;51351.59;;;-145.38;53.78
8069;BME280;4077;43.702;24.896;2024-02-21T11:59:33;51369.16;;;-145.38;53.10
8069;BME280;4077;43.702;24.896;2024-02-21T12:02:01;51365.25;;;-145.38;53.22
8069;BME280;4077;43.702;24.896;2024-02-21T12:04:30;51353.56;;;-145.38;52.67
8069;BME280;4077;43.702;24.896;2024-02-21T12:06:59;51343.78;;;-145.38;52.90
8069;BME280;4077;43.702;24.896;2024-02-21T12:09:25;51367.22;;;-145.38;52.69
8069;BME280;4077;43.702;24.896;2024-02-21T12:11:58;51334.03;;;-145.38;52.80
8069;BME280;4077;43.702;24.896;2024-02-21T12:14:25;51337.94;;;-145.38;53.50
8069;BME280;4077;43.702;24.896;2024-02-21T12:16:51;51384.78;;;-145.38;53.38
8069;BME280;4077;43.702;24.896;2024-02-21T12:19:17;51376.97;;;-145.38;53.87
8069;BME280;4077;43.702;24.896;2024-02-21T12:21:42;51402.34;;;-145.38;54.48
8069;BME280;4077;43.702;24.896;2024-02-21T12:24:24;51337.94;;;-145.38;53.27
8069;BME280;4077;43.702;24.896;2024-02-21T12:26:50;51357.47;;;-145.38;52.24
8069;BME280;4077;43.702;24.896;2024-02-21T12:29:17;51369.16;;;-145.38;51.82
8069;BME280;4077;43.702;24.896;2024-02-21T12:31:43;51343.78;;;-145.38;50.89
8069;BME280;4077;43.702;24.896;2024-02-21T12:34:09;51355.50;;;-145.38;50.76
8069;BME280;4077;43.702;24.896;2024-02-21T12:36:44;51316.47;;;-145.38;51.13
8069;BME280;4077;43.702;24.896;2024-02-21T12:39:11;51376.97;;;-145.38;50.79
8069;BME280;4077;43.702;24.896;2024-02-21T12:41:38;51353.56;;;-145.38;51.15
8069;BME280;4077;43.702;24.896;2024-02-21T12:44:04;51369.16;;;-145.38;51.17